Home > Products > Valid Products > TAF

000
FTUS43 KGLD 171700
TAFGLD
TAF
KGLD 171735Z 1718/1818 17010KT P6SM BKN015
     FM172000 19014G22KT P6SM SCT200
     FM180100 19016KT P6SM SCT200
     FM181000 20018KT P6SM SCT015
     FM181500 19019G27KT P6SM SKC=



000
FTUS43 KGLD 171700
TAFMCK
TAF
KMCK 171735Z 1718/1818 12006KT P6SM SCT200
     FM172100 15012KT P6SM SCT200
     FM180500 19008KT P6SM FEW025
     FM181500 19015G23KT P6SM SKC=



000
FTUS43 KGLD 171400 AAA
TAFGLD
TAF AMD
KGLD 171443Z 1715/1812 13008KT 6SM BR OVC005
     FM171700 16010KT P6SM SCT007 BKN015
     FM172000 18012G20KT P6SM FEW020 SCT200
     FM180100 17013KT P6SM FEW100
     FM180600 18015G23KT P6SM SCT200=



000
FTUS43 KGLD 171100
TAFGLD
TAF
KGLD 171140Z 1712/1812 10006KT 6SM BR OVC005
     FM171600 16011KT P6SM SCT015 BKN035
     FM171900 18017G25KT P6SM FEW060 SCT200
     FM180100 17013KT P6SM FEW100
     FM180600 18015G23KT P6SM SCT200=



000
FTUS43 KGLD 171100
TAFMCK
TAF
KMCK 171140Z 1712/1812 VRB05KT P6SM OVC015
     FM171700 12007KT P6SM SCT070
     FM172100 16012KT P6SM SCT080 BKN200=



000
FTUS43 KGLD 170900 AAA
TAFGLD
TAF AMD
KGLD 170947Z 1710/1806 08006KT P6SM BKN007
     FM171500 16011KT P6SM SCT015 BKN035
     FM171800 17012G18KT P6SM BKN060
     FM172100 17017G26KT P6SM BKN080=



000
FTUS43 KGLD 170900 AAA
TAFMCK
TAF AMD
KMCK 170936Z 1710/1806 05010KT P6SM OVC015
     FM171500 08007KT P6SM SCT020 BKN070
     FM171800 13007KT P6SM BKN070
     FM172100 16011KT P6SM BKN080=



000
FTUS43 KGLD 170500
TAFGLD
TAF
KGLD 170520Z 1706/1806 08006KT P6SM SCT020 BKN140
     FM171100 12007KT P6SM SCT015 BKN050
      TEMPO 1711/1715 BKN015
     FM171500 16011KT P6SM SCT015 BKN035
     FM171800 17012G18KT P6SM BKN060
     FM172100 17017G26KT P6SM BKN080=



000
FTUS43 KGLD 170500
TAFMCK
TAF
KMCK 170520Z 1706/1806 03010KT P6SM SCT020 BKN130
      TEMPO 1708/1712 BKN020
     FM171400 08007KT P6SM SCT020 BKN070
     FM171800 13007KT P6SM BKN070
     FM172100 16011KT P6SM BKN080=



000
FTUS43 KGLD 162300
TAFGLD
TAF
KGLD 162320Z 1700/1724 02018G25KT P6SM SCT060 BKN230
     FM170100 03011KT P6SM FEW060 BKN230
     FM170600 08006KT P6SM BKN140
     FM171200 12007KT P6SM SCT020 BKN050
     FM171700 16012KT P6SM SCT015 BKN035
     FM171900 17015G24KT P6SM BKN050=



000
FTUS43 KGLD 162300
TAFMCK
TAF
KMCK 162320Z 1700/1724 36016KT P6SM SCT070 BKN230
     FM170200 03010KT P6SM FEW070 BKN230
     FM170900 02007KT P6SM SCT025 BKN200
     FM171500 08008KT P6SM SCT035 BKN070
     FM171800 13007KT P6SM BKN070
     FM172100 17011KT P6SM BKN070=



000
FTUS43 KGLD 161700
TAFGLD
TAF
KGLD 161726Z 1618/1718 34030G39KT P6SM SCT045 SCT250
     FM162100 35025G31KT P6SM SCT045 SCT250
     FM162300 35013G23KT P6SM FEW050 BKN200
     FM170100 03010KT P6SM OVC090
     FM170600 VRB05KT P6SM OVC090=



000
FTUS43 KGLD 161700
TAFMCK
TAF
KMCK 161726Z 1618/1718 32029G35KT P6SM SCT040 SCT250
     FM162100 34023G28KT P6SM SCT060 BKN250
     FM170000 35015G22KT P6SM FEW060 BKN200
     FM170200 02011KT P6SM BKN200
     FM170700 VRB06KT P6SM BKN100=



000
FTUS43 KGLD 161600 AAA
TAFMCK
TAF AMD
KMCK 161624Z 1616/1712 32023G36KT P6SM SCT040 BKN250
     FM162100 33020G28KT P6SM SCT070
     FM170000 36013KT P6SM SCT070
     FM170900 03005KT P6SM BKN030=



000
FTUS43 KGLD 161600 AAA
TAFGLD
TAF AMD
KGLD 161613Z 1616/1712 32025G45KT P6SM BKN250
     FM162100 32018G30KT P6SM FEW045 SCT250
     FM170000 35013KT P6SM SCT090 BKN200
     FM170900 04010KT P6SM BKN090=



000
FTUS43 KGLD 161100
TAFMCK
TAF
KMCK 161132Z 1612/1712 30018G26KT P6SM SCT120 BKN250
     FM161900 33016G22KT P6SM SCT070
     FM170000 36013KT P6SM SCT070
     FM170900 03005KT P6SM BKN030=



000
FTUS43 KGLD 161100
TAFGLD
TAF
KGLD 161132Z 1612/1712 32018G32KT P6SM SCT110 BKN250
     FM170000 35013KT P6SM SCT090 BKN200
     FM170900 04010KT P6SM BKN090=



000
FTUS43 KGLD 160500
TAFMCK
TAF
KMCK 160520Z 1606/1706 18011KT P6SM BKN150
     FM161100 30015G25KT P6SM SCT150 BKN250
     FM161500 32024G36KT P6SM FEW250
     FM162100 33016G25KT P6SM SCT070
     FM170000 36013KT P6SM SCT070 SCT300
     FM170200 03006KT P6SM SCT060 SCT250=



000
FTUS43 KGLD 160500
TAFGLD
TAF
KGLD 160520Z 1606/1706 18012KT P6SM SCT180 SCT250
     FM160800 25013KT P6SM SCT180 BKN250
     FM161000 32018G28KT P6SM SCT130 SCT180 BKN250
     FM161500 34025G37KT P6SM SCT250
     FM162100 34017G26KT P6SM FEW090 SCT250
     FM170000 36013KT P6SM FEW090 BKN200
     FM170200 04010KT P6SM BKN090=



000
FTUS43 KGLD 152300
TAFMCK
TAF
KMCK 152320Z 1600/1624 21016KT P6SM BKN200
     FM160200 19013KT P6SM BKN150
     FM161000 30015G25KT P6SM BKN150
     FM161500 32022G33KT P6SM FEW250
     FM162300 35017G27KT P6SM BKN070=



000
FTUS43 KGLD 152300
TAFGLD
TAF
KGLD 152320Z 1600/1624 21018G25KT P6SM BKN180
     FM160200 21014KT P6SM BKN180
     FM160800 25016KT P6SM BKN180
     FM161000 32018G28KT P6SM SCT130 BKN180
     FM161500 34021G32KT P6SM SCT250
     FM162300 36014KT P6SM SCT080 BKN180=



000
FTUS43 KGLD 151700
TAFMCK
TAF
KMCK 151721Z 1518/1618 22019G26KT P6SM BKN300
     FM160200 19012KT P6SM BKN200
     FM161000 31020G27KT P6SM SCT200=



000
FTUS43 KGLD 151700
TAFGLD
TAF
KGLD 151721Z 1518/1618 22018G26KT P6SM BKN300
     FM160200 19013KT P6SM SCT200
     FM161000 33021G28KT P6SM SCT200=



000
FTUS43 KGLD 151100
TAFGLD
TAF
KGLD 151136Z 1512/1612 23018G28KT P6SM FEW300
     FM160200 20012KT P6SM SCT200
     FM160800 28010KT P6SM SCT200=



000
FTUS43 KGLD 151100
TAFMCK
TAF
KMCK 151136Z 1512/1612 22006KT P6SM FEW250
     FM151600 22015G25KT P6SM FEW250
     FM160200 19011KT P6SM SCT200
     FM161000 30015KT P6SM BKN200=



000
FTUS43 KGLD 150500
TAFGLD
TAF
KGLD 150520Z 1506/1606 25010KT P6SM SKC
     FM150900 23014KT P6SM SKC
     FM151400 23018G28KT P6SM FEW300
     FM160200 20012KT P6SM SCT200=



000
FTUS43 KGLD 150500
TAFMCK
TAF
KMCK 150520Z 1506/1606 25006KT P6SM SKC
     FM151600 22015G25KT P6SM FEW250
     FM160200 19011KT P6SM SCT200=



000
FTUS43 KGLD 142300
TAFMCK
TAF
KMCK 142320Z 1500/1524 31020G27KT P6SM BKN060
     FM150200 28010KT P6SM SCT060
     FM150900 24006KT P6SM FEW150 FEW200
     FM151600 22015G25KT P6SM FEW200=



000
FTUS43 KGLD 142300
TAFGLD
TAF
KGLD 142320Z 1500/1524 33015G23KT P6SM SCT060
     FM150200 26006KT P6SM SKC
     FM150900 23015KT P6SM SCT200
     FM151500 22018G28KT P6SM SKC=



    US Dept of Commerce
    National Oceanic and Atmospheric Administration
    National Weather Service
    1325 East West Highway
    Silver Spring, MD 20910
    Page Author: NWS Internet Services Team
Disclaimer
Information Quality
Credits
Glossary
Privacy Policy
Freedom of Information Act (FOIA)
About Us
Career Opportunities